createdAt,value
2023-04-07T00:00:25.666Z,4.915771
2023-04-07T00:01:35.299Z,4.885559
2023-04-07T00:02:44.764Z,4.855347
2023-04-07T00:03:52.831Z,4.815063
2023-04-07T00:05:02.417Z,4.77478
2023-04-07T00:06:10.973Z,4.734497
2023-04-07T00:07:20.648Z,4.684143
2023-04-07T00:08:30.308Z,4.633789
2023-04-07T00:09:38.985Z,4.603577
2023-04-07T00:10:48.690Z,4.623718
2023-04-07T00:11:56.418Z,4.623718
2023-04-07T00:13:06.307Z,4.623718
2023-04-07T00:14:16.214Z,4.603577
2023-04-07T00:15:24.881Z,4.593506
2023-04-07T00:16:34.549Z,4.563293
2023-04-07T00:17:44.261Z,4.593506
2023-04-07T00:18:53.896Z,4.563293
2023-04-07T00:20:03.601Z,4.563293
2023-04-07T00:21:11.305Z,4.553223
2023-04-07T00:22:20.957Z,4.52301
2023-04-07T00:23:30.648Z,4.533081
2023-04-07T00:24:39.337Z,4.533081
2023-04-07T00:25:49.020Z,4.502869
2023-04-07T00:26:58.707Z,4.502869
2023-04-07T00:28:05.358Z,4.52301
2023-04-07T00:29:15.048Z,4.533081
2023-04-07T00:30:23.726Z,4.533081
2023-04-07T00:31:33.426Z,4.533081
2023-04-07T00:32:42.168Z,4.553223
2023-04-07T00:33:51.780Z,4.593506
2023-04-07T00:35:02.192Z,4.664001
2023-04-07T00:36:09.258Z,4.633789
2023-04-07T00:37:18.912Z,4.704285
2023-04-07T00:38:28.591Z,4.744568
2023-04-07T00:39:38.283Z,4.77478
2023-04-07T00:40:47.939Z,4.744568
2023-04-07T00:41:56.606Z,4.77478
2023-04-07T00:43:05.290Z,4.815063
2023-04-07T00:44:13.945Z,4.865417
2023-04-07T00:45:21.632Z,4.865417
2023-04-07T00:46:30.418Z,4.865417
2023-04-07T00:47:40.187Z,4.915771
2023-04-07T00:48:48.759Z,4.986267
2023-04-07T00:49:58.418Z,4.986267
2023-04-07T00:51:08.093Z,5.066833
2023-04-07T00:52:17.741Z,5.046692
2023-04-07T00:53:27.442Z,5.076904
2023-04-07T00:54:37.139Z,5.1474
2023-04-07T00:55:46.832Z,5.1474
2023-04-07T00:56:56.459Z,5.227966
2023-04-07T00:58:05.097Z,5.248108
2023-04-07T00:59:13.785Z,5.258179
2023-04-07T01:00:23.535Z,5.258179
2023-04-07T01:01:33.320Z,5.258179
2023-04-07T01:02:42.070Z,5.288391
2023-04-07T01:03:51.777Z,5.348816
2023-04-07T01:05:00.267Z,5.358887
2023-04-07T01:06:09.940Z,5.389099
2023-04-07T01:07:18.618Z,5.379028
2023-04-07T01:08:26.272Z,5.429382
2023-04-07T01:09:35.990Z,5.439453
2023-04-07T01:10:44.663Z,5.469666
2023-04-07T01:11:53.366Z,5.479736
2023-04-07T01:13:03.153Z,5.509949
2023-04-07T01:14:10.814Z,5.570374
2023-04-07T01:15:20.473Z,5.620728
2023-04-07T01:16:29.185Z,5.65094
2023-04-07T01:17:36.881Z,5.661011
2023-04-07T01:18:46.542Z,5.691223
2023-04-07T01:19:54.264Z,5.681152
2023-04-07T01:21:02.933Z,5.65094
2023-04-07T01:22:12.611Z,5.681152
2023-04-07T01:23:22.405Z,5.661011
2023-04-07T01:24:32.090Z,5.681152
2023-04-07T01:25:40.808Z,5.721436
2023-04-07T01:26:51.533Z,5.691223
2023-04-07T01:28:01.192Z,5.721436
2023-04-07T01:29:09.973Z,5.721436
2023-04-07T01:30:17.692Z,5.731506
2023-04-07T01:31:27.378Z,5.731506
2023-04-07T01:32:36.100Z,5.761719
2023-04-07T01:33:45.736Z,5.822144
2023-04-07T01:34:55.459Z,5.802002
2023-04-07T01:36:03.133Z,5.862427
2023-04-07T01:37:12.860Z,5.862427
2023-04-07T01:38:21.438Z,5.842285
2023-04-07T01:39:31.309Z,5.842285
2023-04-07T01:40:40.984Z,5.862427
2023-04-07T01:41:48.624Z,5.872498
2023-04-07T01:42:58.314Z,5.862427
2023-04-07T01:44:06.950Z,5.862427
2023-04-07T01:45:15.628Z,5.872498
2023-04-07T01:46:25.278Z,5.862427
2023-04-07T01:47:33.092Z,5.822144
2023-04-07T01:48:41.758Z,5.802002
2023-04-07T01:49:51.460Z,5.832214
2023-04-07T01:51:01.157Z,5.892639
2023-04-07T01:52:10.852Z,5.932922
2023-04-07T01:53:20.622Z,6.013489
2023-04-07T01:54:28.294Z,5.983276
2023-04-07T01:55:38.063Z,5.942993
2023-04-07T01:56:46.843Z,5.993347
2023-04-07T01:57:56.509Z,5.983276
2023-04-07T01:59:06.201Z,5.993347
2023-04-07T02:00:14.916Z,5.983276
2023-04-07T02:01:24.595Z,6.043701
2023-04-07T02:02:33.437Z,6.02356
2023-04-07T02:03:42.074Z,6.053772
2023-04-07T02:04:51.750Z,6.053772
2023-04-07T02:05:59.387Z,6.043701
2023-04-07T02:07:08.048Z,5.993347
2023-04-07T02:08:17.764Z,5.983276
2023-04-07T02:09:25.481Z,6.02356
2023-04-07T02:10:35.215Z,6.053772
2023-04-07T02:11:44.944Z,6.083984
2023-04-07T02:12:54.571Z,6.094055
2023-04-07T02:14:04.413Z,6.124268
2023-04-07T02:15:14.116Z,6.124268
2023-04-07T02:16:22.865Z,6.164551
2023-04-07T02:17:32.589Z,6.194763
2023-04-07T02:18:41.301Z,6.194763
2023-04-07T02:19:50.938Z,6.204834
2023-04-07T02:20:59.659Z,6.204834
2023-04-07T02:22:07.312Z,6.235046
2023-04-07T02:23:17.035Z,6.235046
2023-04-07T02:24:25.728Z,6.305542
2023-04-07T02:25:35.406Z,6.305542
2023-04-07T02:26:45.068Z,6.345825
2023-04-07T02:27:53.729Z,6.295471
2023-04-07T02:29:03.385Z,6.305542
2023-04-07T02:30:12.095Z,6.355896
2023-04-07T02:31:21.827Z,6.376038
2023-04-07T02:32:31.466Z,6.345825
2023-04-07T02:33:39.103Z,6.355896
2023-04-07T02:34:47.745Z,6.386108
2023-04-07T02:35:57.465Z,6.436462
2023-04-07T02:37:06.131Z,6.476746
2023-04-07T02:38:14.770Z,6.506958
2023-04-07T02:39:24.425Z,6.567383
2023-04-07T02:40:33.127Z,6.617737
2023-04-07T02:41:43.766Z,6.567383
2023-04-07T02:42:52.424Z,6.567383
2023-04-07T02:44:02.094Z,6.617737
2023-04-07T02:45:11.771Z,6.597595
2023-04-07T02:46:20.511Z,6.597595
2023-04-07T02:47:28.172Z,6.65802
2023-04-07T02:48:36.822Z,6.688232
2023-04-07T02:49:45.476Z,6.738586
2023-04-07T02:50:54.158Z,6.738586
2023-04-07T02:52:03.933Z,6.718445
2023-04-07T02:53:12.609Z,6.718445
2023-04-07T02:54:23.293Z,6.718445
2023-04-07T02:55:32.004Z,6.738586
2023-04-07T02:56:39.778Z,6.77887
2023-04-07T02:57:48.568Z,6.768799
2023-04-07T02:58:56.308Z,6.809082
2023-04-07T03:00:05.065Z,6.849365
2023-04-07T03:01:14.857Z,6.849365
2023-04-07T03:02:23.637Z,6.809082
2023-04-07T03:03:33.336Z,6.819153
2023-04-07T03:04:42.008Z,6.839294
2023-04-07T03:05:50.688Z,6.748657
2023-04-07T03:07:00.380Z,6.768799
2023-04-07T03:08:10.127Z,6.768799
2023-04-07T03:09:20.134Z,6.738586
2023-04-07T03:10:28.967Z,6.748657
2023-04-07T03:11:37.717Z,6.748657
2023-04-07T03:12:47.404Z,6.698303
2023-04-07T03:13:57.067Z,6.688232
2023-04-07T03:15:04.842Z,6.668091
2023-04-07T03:16:14.462Z,6.637878
2023-04-07T03:17:23.166Z,6.637878
2023-04-07T03:18:31.823Z,6.668091
2023-04-07T03:19:41.500Z,6.637878
2023-04-07T03:20:50.213Z,6.627808
2023-04-07T03:21:59.912Z,6.597595
2023-04-07T03:23:08.823Z,6.597595
2023-04-07T03:24:18.535Z,6.587524
2023-04-07T03:25:28.175Z,6.587524
2023-04-07T03:26:35.980Z,6.597595
2023-04-07T03:27:44.668Z,6.557312
2023-04-07T03:28:54.363Z,6.567383
2023-04-07T03:30:02.045Z,6.587524
2023-04-07T03:31:12.170Z,6.597595
2023-04-07T03:32:21.790Z,6.617737
2023-04-07T03:33:29.445Z,6.597595
2023-04-07T03:34:39.110Z,6.617737
2023-04-07T03:35:46.829Z,6.587524
2023-04-07T03:36:56.478Z,6.587524
2023-04-07T03:38:06.169Z,6.587524
2023-04-07T03:39:15.880Z,6.506958
2023-04-07T03:40:25.579Z,6.53717
2023-04-07T03:41:34.253Z,6.517029
2023-04-07T03:42:41.963Z,6.53717
2023-04-07T03:43:51.910Z,6.476746
2023-04-07T03:45:00.340Z,6.436462
2023-04-07T03:46:10.028Z,6.486816
2023-04-07T03:47:18.759Z,6.456604
2023-04-07T03:48:28.692Z,6.456604
2023-04-07T03:49:37.097Z,6.436462
2023-04-07T03:50:45.935Z,6.40625
2023-04-07T03:51:54.600Z,6.40625
2023-04-07T03:53:04.335Z,6.416321
2023-04-07T03:54:12.984Z,6.416321
2023-04-07T03:55:21.706Z,6.386108
2023-04-07T03:56:31.469Z,6.446533
2023-04-07T03:57:41.159Z,6.386108
2023-04-07T03:58:50.911Z,6.345825
2023-04-07T04:00:00.567Z,6.235046
2023-04-07T04:01:08.339Z,6.255188
2023-04-07T04:02:18.079Z,6.27533
2023-04-07T04:03:26.731Z,6.325684
2023-04-07T04:04:36.383Z,6.355896
2023-04-07T04:05:46.082Z,6.355896
2023-04-07T04:06:53.836Z,6.386108
2023-04-07T04:08:03.490Z,6.386108
2023-04-07T04:09:12.142Z,6.345825
2023-04-07T04:10:19.858Z,6.305542
2023-04-07T04:11:29.535Z,6.386108
2023-04-07T04:12:37.237Z,6.416321
2023-04-07T04:13:46.976Z,6.355896
2023-04-07T04:14:56.698Z,6.345825
2023-04-07T04:16:04.506Z,6.386108
2023-04-07T04:17:15.204Z,6.376038
2023-04-07T04:18:24.881Z,6.416321
2023-04-07T04:19:33.602Z,6.355896
2023-04-07T04:20:43.319Z,6.376038
2023-04-07T04:21:51.023Z,6.345825
2023-04-07T04:23:00.702Z,6.345825
2023-04-07T04:24:10.365Z,6.27533
2023-04-07T04:25:18.027Z,6.255188
2023-04-07T04:26:27.734Z,6.325684
2023-04-07T04:27:36.476Z,6.345825
2023-04-07T04:28:44.130Z,6.376038
2023-04-07T04:29:53.789Z,6.305542
2023-04-07T04:31:02.479Z,6.355896
2023-04-07T04:32:12.445Z,6.345825
2023-04-07T04:33:22.100Z,6.345825
2023-04-07T04:34:29.738Z,6.386108
2023-04-07T04:35:39.398Z,6.416321
2023-04-07T04:36:49.285Z,6.355896
2023-04-07T04:37:56.864Z,6.295471
2023-04-07T04:39:06.525Z,6.295471
2023-04-07T04:40:15.243Z,6.305542
2023-04-07T04:41:23.947Z,6.295471
2023-04-07T04:42:33.614Z,6.345825
2023-04-07T04:43:42.315Z,6.376038
2023-04-07T04:44:50.081Z,6.386108
2023-04-07T04:45:59.769Z,6.305542
2023-04-07T04:47:09.485Z,6.325684
2023-04-07T04:48:18.116Z,6.386108
2023-04-07T04:49:27.799Z,6.456604
2023-04-07T04:50:34.478Z,6.416321
2023-04-07T04:51:44.186Z,6.355896
2023-04-07T04:52:53.872Z,6.325684
2023-04-07T04:54:02.571Z,6.345825
2023-04-07T04:55:14.054Z,6.40625
2023-04-07T04:56:20.960Z,6.416321
2023-04-07T04:57:30.651Z,6.376038
2023-04-07T04:58:40.391Z,6.386108
2023-04-07T04:59:50.054Z,6.386108
2023-04-07T05:00:59.720Z,6.355896
2023-04-07T05:02:09.439Z,6.386108
2023-04-07T05:03:17.241Z,6.345825
2023-04-07T05:04:26.944Z,6.386108
2023-04-07T05:05:35.438Z,6.345825
2023-04-07T05:06:45.159Z,6.376038
2023-04-07T05:07:54.827Z,6.40625
2023-04-07T05:09:04.469Z,6.355896
2023-04-07T05:10:14.152Z,6.386108
2023-04-07T05:11:22.871Z,6.305542
2023-04-07T05:12:31.646Z,6.305542
2023-04-07T05:13:40.308Z,6.255188
2023-04-07T05:14:48.968Z,6.265259
2023-04-07T05:15:57.704Z,6.235046
2023-04-07T05:17:07.328Z,6.224976
2023-04-07T05:18:14.994Z,6.265259
2023-04-07T05:19:23.651Z,6.224976
2023-04-07T05:20:33.336Z,6.27533
2023-04-07T05:21:41.047Z,6.305542
2023-04-07T05:22:50.767Z,6.386108
2023-04-07T05:23:59.437Z,6.305542
2023-04-07T05:25:10.110Z,6.355896
2023-04-07T05:26:19.772Z,6.386108
2023-04-07T05:27:29.448Z,6.40625
2023-04-07T05:28:39.127Z,6.416321
2023-04-07T05:29:48.780Z,6.446533
2023-04-07T05:30:56.484Z,6.486816
2023-04-07T05:32:07.228Z,6.436462
2023-04-07T05:33:14.805Z,6.40625
2023-04-07T05:34:23.449Z,6.355896
2023-04-07T05:35:32.205Z,6.27533
2023-04-07T05:36:39.880Z,6.224976
2023-04-07T05:37:49.658Z,6.114197
2023-04-07T05:38:59.302Z,6.02356
2023-04-07T05:40:06.968Z,6.013489
2023-04-07T05:41:16.640Z,6.094055
2023-04-07T05:42:24.314Z,6.164551
2023-04-07T05:43:34.013Z,6.144409
2023-04-07T05:44:42.677Z,6.144409
2023-04-07T05:45:51.416Z,6.174622
2023-04-07T05:47:01.071Z,6.174622
2023-04-07T05:48:10.775Z,6.083984
2023-04-07T05:49:20.574Z,6.013489
2023-04-07T05:50:29.186Z,5.993347
2023-04-07T05:51:37.846Z,6.043701
2023-04-07T05:52:46.586Z,6.164551
2023-04-07T05:53:56.318Z,6.164551
2023-04-07T05:55:05.989Z,6.124268
2023-04-07T05:56:15.678Z,6.174622
2023-04-07T05:57:25.355Z,6.114197
2023-04-07T05:58:35.011Z,6.164551
2023-04-07T05:59:44.699Z,6.053772
2023-04-07T06:00:52.423Z,6.073914
2023-04-07T06:02:02.212Z,6.013489
2023-04-07T06:03:11.927Z,6.02356
2023-04-07T06:04:20.532Z,6.094055
2023-04-07T06:05:30.257Z,6.02356
2023-04-07T06:06:39.941Z,5.932922
2023-04-07T06:07:48.678Z,6.043701
2023-04-07T06:08:58.379Z,6.194763
2023-04-07T06:10:08.063Z,6.295471
2023-04-07T06:11:16.818Z,6.325684
2023-04-07T06:12:26.727Z,6.386108
2023-04-07T06:13:35.563Z,6.446533
2023-04-07T06:14:45.328Z,6.436462
2023-04-07T06:15:53.979Z,6.506958
2023-04-07T06:17:02.743Z,6.567383
2023-04-07T06:18:12.304Z,6.506958
2023-04-07T06:19:20.049Z,6.587524
2023-04-07T06:20:28.798Z,6.517029
2023-04-07T06:21:38.381Z,6.486816
2023-04-07T06:22:46.129Z,6.617737
2023-04-07T06:23:55.817Z,6.637878
2023-04-07T06:25:04.538Z,6.768799
2023-04-07T06:26:13.221Z,6.748657
2023-04-07T06:27:22.930Z,6.809082
2023-04-07T06:28:31.664Z,6.688232
2023-04-07T06:29:40.337Z,6.617737
2023-04-07T06:30:50.138Z,6.567383
2023-04-07T06:31:58.862Z,6.597595
2023-04-07T06:33:08.633Z,6.748657
2023-04-07T06:34:16.391Z,6.869507
2023-04-07T06:35:25.108Z,6.879578
2023-04-07T06:36:34.770Z,6.889648
2023-04-07T06:37:42.432Z,6.768799
2023-04-07T06:38:51.132Z,6.688232
2023-04-07T06:40:00.834Z,6.688232
2023-04-07T06:41:10.522Z,6.738586
2023-04-07T06:42:20.167Z,6.809082
2023-04-07T06:43:29.877Z,6.879578
2023-04-07T06:44:38.577Z,6.879578
2023-04-07T06:45:47.263Z,6.950073
2023-04-07T06:46:56.913Z,7.03064
2023-04-07T06:48:06.669Z,7.050781
2023-04-07T06:49:16.277Z,7.101135
2023-04-07T06:50:24.946Z,7.060852
2023-04-07T06:51:33.611Z,7.171631
2023-04-07T06:52:43.306Z,7.171631
2023-04-07T06:53:51.961Z,7.101135
2023-04-07T06:55:01.659Z,7.151489
2023-04-07T06:56:11.371Z,7.181702
2023-04-07T06:57:20.327Z,7.28241
2023-04-07T06:58:30.074Z,7.383118
2023-04-07T06:59:39.731Z,7.483826
2023-04-07T07:00:47.396Z,7.352905
2023-04-07T07:01:57.357Z,7.322693
2023-04-07T07:03:06.486Z,7.28241
2023-04-07T07:04:16.339Z,7.362976
2023-04-07T07:05:26.374Z,7.322693
2023-04-07T07:06:34.282Z,7.322693
2023-04-07T07:07:44.066Z,7.393188
2023-04-07T07:08:53.122Z,7.483826
2023-04-07T07:10:00.959Z,7.53418
2023-04-07T07:11:10.838Z,7.503967
2023-04-07T07:12:18.767Z,7.473755
2023-04-07T07:13:27.555Z,7.564392
2023-04-07T07:14:37.257Z,7.6651
2023-04-07T07:15:44.985Z,7.695312
2023-04-07T07:16:54.706Z,7.796021
2023-04-07T07:18:03.448Z,7.826233
2023-04-07T07:19:11.075Z,7.866516
2023-04-07T07:20:20.803Z,7.896729
2023-04-07T07:21:29.554Z,7.846375
2023-04-07T07:22:38.260Z,7.926941
2023-04-07T07:23:48.041Z,7.896729
2023-04-07T07:24:56.661Z,7.866516
2023-04-07T07:26:06.415Z,7.816162
2023-04-07T07:27:16.123Z,7.967224
2023-04-07T07:28:24.902Z,8.088074
2023-04-07T07:29:34.590Z,8.128357
2023-04-07T07:30:43.308Z,8.239136
2023-04-07T07:31:54.411Z,8.380127
2023-04-07T07:33:02.773Z,8.269348
2023-04-07T07:34:11.470Z,8.410339
2023-04-07T07:35:21.169Z,8.511047
2023-04-07T07:36:29.833Z,8.581543
2023-04-07T07:37:39.521Z,8.551331
2023-04-07T07:38:49.258Z,8.692322
2023-04-07T07:39:58.970Z,8.883667
2023-04-07T07:41:07.764Z,9.075012
2023-04-07T07:42:17.430Z,9.306641
2023-04-07T07:43:26.096Z,9.216003
2023-04-07T07:44:35.870Z,9.125366
2023-04-07T07:45:44.671Z,9.004517
2023-04-07T07:46:52.426Z,9.125366
2023-04-07T07:48:01.433Z,9.155579
2023-04-07T07:49:09.973Z,9.075012
2023-04-07T07:50:18.615Z,9.216003
2023-04-07T07:51:28.294Z,9.276428
2023-04-07T07:52:36.024Z,9.367065
2023-04-07T07:53:46.032Z,9.276428
2023-04-07T07:54:54.449Z,9.226074
2023-04-07T07:56:03.154Z,9.024658
2023-04-07T07:57:12.830Z,9.155579
2023-04-07T07:58:21.598Z,9.336853
2023-04-07T07:59:30.323Z,9.508057
2023-04-07T08:00:40.035Z,9.578552
2023-04-07T08:01:49.737Z,9.638977
2023-04-07T08:02:59.430Z,9.367065
2023-04-07T08:04:09.137Z,9.316711
2023-04-07T08:05:17.759Z,9.387207
2023-04-07T08:06:27.430Z,9.467773
2023-04-07T08:07:36.112Z,9.578552
2023-04-07T08:08:45.840Z,9.649048
2023-04-07T08:09:55.585Z,9.608765
2023-04-07T08:11:03.277Z,9.608765
2023-04-07T08:12:11.962Z,9.729614
2023-04-07T08:13:20.657Z,9.67926
2023-04-07T08:14:28.429Z,9.387207
2023-04-07T08:15:38.100Z,9.185791
2023-04-07T08:16:45.820Z,9.276428
2023-04-07T08:17:56.044Z,9.457703
2023-04-07T08:19:04.229Z,9.54834
2023-04-07T08:20:11.891Z,9.608765
2023-04-07T08:21:21.561Z,9.649048
2023-04-07T08:22:30.263Z,9.497986
2023-04-07T08:23:39.969Z,9.477844
2023-04-07T08:24:49.693Z,9.649048
2023-04-07T08:25:57.359Z,9.689331
2023-04-07T08:27:06.011Z,9.830322
2023-04-07T08:28:15.715Z,9.951172
2023-04-07T08:29:23.468Z,10.092163
2023-04-07T08:30:33.132Z,10.021667
2023-04-07T08:31:42.870Z,9.991455
2023-04-07T08:32:50.591Z,10.152588
2023-04-07T08:34:00.408Z,10.263367
2023-04-07T08:35:09.151Z,10.333862
2023-04-07T08:36:18.878Z,10.202942
2023-04-07T08:37:28.706Z,10.132446
2023-04-07T08:38:37.446Z,10.122375
2023-04-07T08:39:47.228Z,10.253296
2023-04-07T08:40:57.006Z,10.414429
2023-04-07T08:42:05.744Z,10.68634
2023-04-07T08:43:15.422Z,10.776978
2023-04-07T08:44:25.218Z,10.787048
2023-04-07T08:45:34.925Z,10.817261
2023-04-07T08:46:44.625Z,10.80719
2023-04-07T08:47:53.318Z,10.787048
2023-04-07T08:49:00.950Z,10.68634
2023-04-07T08:50:10.768Z,10.837402
2023-04-07T08:51:20.322Z,11.018677
2023-04-07T08:52:29.022Z,11.270447
2023-04-07T08:53:38.700Z,11.502075
2023-04-07T08:54:47.413Z,11.632996
2023-04-07T08:55:57.085Z,11.874695
2023-04-07T08:57:05.780Z,12.015686
2023-04-07T08:58:14.457Z,11.914978
2023-04-07T08:59:24.130Z,11.753845
2023-04-07T09:00:32.809Z,11.874695
2023-04-07T09:01:41.519Z,12.116394
2023-04-07T09:02:51.223Z,12.217102
2023-04-07T09:03:58.898Z,12.31781
2023-04-07T09:05:08.589Z,12.307739
2023-04-07T09:06:18.306Z,11.784058
2023-04-07T09:07:27.945Z,11.552429
2023-04-07T09:08:37.598Z,11.653137
2023-04-07T09:09:46.314Z,11.522217
2023-04-07T09:10:54.968Z,11.481934
2023-04-07T09:12:03.720Z,11.723633
2023-04-07T09:13:11.372Z,11.914978
2023-04-07T09:14:21.056Z,12.086182
2023-04-07T09:15:29.792Z,12.086182
2023-04-07T09:16:39.510Z,12.388306
2023-04-07T09:17:49.202Z,12.44873
2023-04-07T09:18:56.796Z,12.750854
2023-04-07T09:20:06.516Z,12.82135
2023-04-07T09:21:16.216Z,13.032837
2023-04-07T09:22:25.896Z,13.254395
2023-04-07T09:23:35.576Z,13.304749
2023-04-07T09:24:45.656Z,13.496094
2023-04-07T09:25:53.332Z,13.647156
2023-04-07T09:27:03.024Z,13.989563
2023-04-07T09:28:11.756Z,14.291687
2023-04-07T09:29:21.440Z,14.352112
2023-04-07T09:30:31.152Z,14.372253
2023-04-07T09:31:40.835Z,14.362183
2023-04-07T09:32:50.528Z,14.372253
2023-04-07T09:33:59.245Z,14.483032
2023-04-07T09:35:07.913Z,14.291687
2023-04-07T09:36:17.610Z,13.627014
2023-04-07T09:37:26.231Z,13.435669
2023-04-07T09:38:33.936Z,13.052979
2023-04-07T09:39:43.648Z,12.972412
2023-04-07T09:40:53.325Z,13.133545
2023-04-07T09:42:02.981Z,13.405457
2023-04-07T09:43:11.651Z,13.667297
2023-04-07T09:44:20.334Z,13.919067
2023-04-07T09:45:34.980Z,14.140625
2023-04-07T09:46:39.779Z,14.352112
2023-04-07T09:47:49.440Z,14.432678
2023-04-07T09:48:59.091Z,14.231262
2023-04-07T09:50:07.762Z,14.120483
2023-04-07T09:51:17.423Z,14.140625
2023-04-07T09:52:26.103Z,14.251404
2023-04-07T09:53:33.757Z,14.45282
2023-04-07T09:54:43.456Z,14.503174
2023-04-07T09:55:53.157Z,14.291687
2023-04-07T09:57:01.807Z,14.483032
2023-04-07T09:58:11.471Z,14.70459
2023-04-07T09:59:20.123Z,15.016785
2023-04-07T10:00:29.860Z,15.288696
2023-04-07T10:01:38.646Z,15.429688
2023-04-07T10:02:46.375Z,15.58075
2023-04-07T10:03:56.077Z,15.651245
2023-04-07T10:05:04.687Z,15.882874
2023-04-07T10:06:14.354Z,16.255493
2023-04-07T10:07:24.079Z,16.527405
2023-04-07T10:08:32.811Z,16.638184
2023-04-07T10:09:42.516Z,16.497192
2023-04-07T10:10:52.237Z,16.678467
2023-04-07T10:12:00.984Z,16.71875
2023-04-07T10:13:10.661Z,16.779175
2023-04-07T10:14:20.316Z,17.151794
2023-04-07T10:15:29.037Z,17.413635
2023-04-07T10:16:38.728Z,17.423706
2023-04-07T10:17:48.442Z,17.443848
2023-04-07T10:18:58.131Z,17.292786
2023-04-07T10:20:06.822Z,17.041016
2023-04-07T10:21:15.516Z,16.648254
2023-04-07T10:22:24.181Z,16.124573
2023-04-07T10:23:31.888Z,16.044006
2023-04-07T10:24:40.632Z,16.154785
2023-04-07T10:25:50.367Z,16.275635
2023-04-07T10:26:59.134Z,16.164856
2023-04-07T10:28:08.770Z,16.08429
2023-04-07T10:29:18.468Z,16.134644
2023-04-07T10:30:27.123Z,16.195068
2023-04-07T10:31:36.881Z,16.376343
2023-04-07T10:32:46.502Z,16.759033
2023-04-07T10:33:56.151Z,16.859741
2023-04-07T10:35:05.931Z,16.940308
2023-04-07T10:36:14.604Z,16.940308
2023-04-07T10:37:24.304Z,16.738892
2023-04-07T10:38:32.954Z,16.487122
2023-04-07T10:39:41.645Z,16.688538
2023-04-07T10:40:50.392Z,17.020874
2023-04-07T10:42:00.131Z,17.121582
2023-04-07T10:43:07.777Z,16.97052
2023-04-07T10:44:17.412Z,16.557617
2023-04-07T10:45:26.135Z,16.8396
2023-04-07T10:46:34.852Z,17.151794
2023-04-07T10:47:44.568Z,17.705688
2023-04-07T10:48:52.420Z,18.007812
2023-04-07T10:50:02.131Z,18.501282
2023-04-07T10:51:11.762Z,18.904114
2023-04-07T10:52:19.452Z,18.652344
2023-04-07T10:53:29.122Z,18.440857
2023-04-07T10:54:37.842Z,18.309937
2023-04-07T10:55:46.842Z,18.22937
2023-04-07T10:56:56.582Z,17.292786
2023-04-07T10:58:05.364Z,16.104431
2023-04-07T10:59:14.159Z,15.802307
2023-04-07T11:00:23.993Z,15.751953
2023-04-07T11:01:32.806Z,15.59082
2023-04-07T11:02:42.601Z,15.651245
2023-04-07T11:03:51.395Z,15.913086
2023-04-07T11:04:59.834Z,16.325989
2023-04-07T11:06:09.573Z,16.507263
2023-04-07T11:07:17.272Z,16.648254
2023-04-07T11:08:26.013Z,16.356201
2023-04-07T11:09:36.950Z,16.09436
2023-04-07T11:10:45.695Z,16.154785
2023-04-07T11:11:55.417Z,16.255493
2023-04-07T11:13:05.109Z,16.134644
2023-04-07T11:14:14.878Z,15.822449
2023-04-07T11:15:24.649Z,15.610962
2023-04-07T11:16:33.462Z,15.510254
2023-04-07T11:17:43.162Z,15.369263
2023-04-07T11:18:52.958Z,15.389404
2023-04-07T11:20:01.704Z,15.510254
2023-04-07T11:21:11.603Z,15.681458
2023-04-07T11:23:31.011Z,15.83252
2023-04-07T11:24:40.814Z,15.792236
2023-04-07T11:25:49.582Z,15.802307
2023-04-07T11:26:58.268Z,16.08429
2023-04-07T11:28:07.998Z,16.195068
2023-04-07T11:29:16.830Z,16.104431
2023-04-07T11:30:26.554Z,16.023865
2023-04-07T11:31:36.467Z,15.822449
2023-04-07T11:32:45.254Z,16.195068
2023-04-07T11:33:54.937Z,16.678467
2023-04-07T11:35:02.629Z,16.900024
2023-04-07T11:36:12.352Z,17.202148
2023-04-07T11:37:22.107Z,16.990662
2023-04-07T11:38:30.782Z,17.020874
2023-04-07T11:39:40.442Z,17.443848
2023-04-07T11:40:49.332Z,17.897034
2023-04-07T11:41:57.972Z,17.967529
2023-04-07T11:43:07.730Z,17.947388
2023-04-07T11:44:15.514Z,18.078308
2023-04-07T11:45:25.186Z,18.027954
2023-04-07T11:46:35.015Z,18.158875
2023-04-07T11:47:42.753Z,17.826538
2023-04-07T11:48:52.342Z,16.960449
2023-04-07T11:50:02.010Z,16.356201
2023-04-07T11:51:09.724Z,16.275635
2023-04-07T11:52:19.458Z,16.275635
2023-04-07T11:53:28.148Z,16.356201
2023-04-07T11:54:37.844Z,16.386414
2023-04-07T11:55:47.570Z,16.557617
2023-04-07T11:56:55.254Z,16.809387
2023-04-07T11:58:04.985Z,16.960449
2023-04-07T11:59:13.674Z,17.272644
2023-04-07T12:00:22.385Z,17.625122
2023-04-07T12:01:32.181Z,18.189087
2023-04-07T12:02:39.947Z,17.84668
2023-04-07T12:03:50.026Z,17.886963
2023-04-07T12:04:59.280Z,17.9776
2023-04-07T12:06:06.930Z,17.866821
2023-04-07T12:07:15.705Z,17.695618
2023-04-07T12:08:26.397Z,17.85675
2023-04-07T12:09:35.056Z,17.9776
2023-04-07T12:10:44.719Z,17.574768
2023-04-07T12:11:52.428Z,17.866821
2023-04-07T12:13:01.080Z,18.189087
2023-04-07T12:14:10.755Z,18.289795
2023-04-07T12:15:19.638Z,18.340149
2023-04-07T12:16:29.319Z,18.521423
2023-04-07T12:17:39.037Z,18.773193
2023-04-07T12:18:46.742Z,18.863831
2023-04-07T12:19:56.437Z,18.894043
2023-04-07T12:21:06.069Z,18.833618
2023-04-07T12:22:14.840Z,18.551636
2023-04-07T12:23:24.662Z,18.440857
2023-04-07T12:24:34.356Z,18.189087
2023-04-07T12:25:44.224Z,17.635193
2023-04-07T12:26:54.148Z,17.242432
2023-04-07T12:28:03.184Z,16.910095
2023-04-07T12:29:12.985Z,16.607971
2023-04-07T12:30:22.740Z,16.497192
2023-04-07T12:31:31.510Z,16.356201
2023-04-07T12:32:41.241Z,16.456909
2023-04-07T12:33:50.185Z,16.356201
2023-04-07T12:34:59.633Z,16.124573
2023-04-07T12:36:09.302Z,15.882874
2023-04-07T12:37:17.964Z,15.721741
2023-04-07T12:38:26.625Z,15.923157
2023-04-07T12:39:34.313Z,16.09436
2023-04-07T12:40:42.972Z,16.205139
2023-04-07T12:41:52.712Z,16.195068
2023-04-07T12:43:01.403Z,16.325989
2023-04-07T12:44:10.122Z,16.426697
2023-04-07T12:45:19.817Z,16.607971
2023-04-07T12:46:27.643Z,16.325989
2023-04-07T12:47:37.204Z,16.205139
2023-04-07T12:48:46.907Z,16.356201
2023-04-07T12:49:55.588Z,16.456909
2023-04-07T12:51:05.331Z,16.195068
2023-04-07T12:52:15.122Z,16.104431
2023-04-07T12:53:23.805Z,15.903015
2023-04-07T12:54:33.507Z,15.621033
2023-04-07T12:55:41.164Z,15.439758
2023-04-07T12:56:50.894Z,15.439758
2023-04-07T12:58:00.602Z,15.550537
2023-04-07T12:59:09.259Z,15.731812
2023-04-07T13:00:18.941Z,15.862732
2023-04-07T13:01:27.698Z,15.792236
2023-04-07T13:02:35.456Z,15.570679
2023-04-07T13:03:45.139Z,15.550537
2023-04-07T13:04:53.708Z,15.540466
2023-04-07T13:06:02.447Z,15.369263
2023-04-07T13:07:12.167Z,15.238342
2023-04-07T13:08:21.831Z,15.278625
2023-04-07T13:09:31.523Z,15.369263
2023-04-07T13:10:40.212Z,15.238342
2023-04-07T13:11:49.860Z,15.147705
2023-04-07T13:12:59.544Z,15.278625
2023-04-07T13:14:07.220Z,15.389404
2023-04-07T13:15:16.869Z,15.399475
2023-04-07T13:16:26.545Z,15.4599
2023-04-07T13:17:34.263Z,15.288696
2023-04-07T13:18:43.956Z,15.20813
2023-04-07T13:19:54.245Z,15.218201
2023-04-07T13:22:12.005Z,14.95636
2023-04-07T13:23:22.840Z,14.966431
2023-04-07T13:24:32.327Z,14.966431
2023-04-07T13:25:41.985Z,14.916077
2023-04-07T13:26:51.688Z,14.724731